Aviation Digital Data Service (ADDS)

Output produced by METARs form (0737 UTC 24 May 2018)
found at http://www.aviationweather.gov/adds/metars/
 
TAF TAPA 240500Z 2406/2506 10012KT 9999 SCT018 
     PROB40 
     TEMPO 2406/2414 SHRA 
     PROB40 
     TEMPO 2503/2506 SHRA